Ingliston, United Kingdom

12:58 AM GMT on February 11, 2016 (GMT +0000)
South Queensferry | | Change Station
CLOSE
Current Station
Personal Weather Station
Location: Edinburgh, MIDLOTHIAN
Elevation: 89 ft
Nearby Weather Stations

Elev 89 ft 55.99 °N, 3.41 °W | Updated 3 minutes ago

Clear
Clear
34.5 °F
Feels Like 34 °F
N
1.6
Wind Variable Wind from SSW
Gusts 5.4 mph

Today
High -- | Low -- °F
--% Chance of Precip.
Yesterday
High -- | Low -- °F
Precip. -- in
Pressure 29.53 in
Visibility 6.2 miles
Clouds
Windchill 34 °F
Dew Point 34 °F
Humidity 99%
Rainfall 0.00 in
Snow Depth Not available.
7:48 AM 5:07 PM
Waxing Crescent, 8% visible
METAR EGPH 110050Z AUTO 25006KT 9999 NCD 01/M01 Q1000
Pressure 29.53 in
Visibility 6.2 miles
Clouds
Windchill 34 °F
Dew Point 34 °F
Humidity 99%
Rainfall 0.00 in
Snow Depth Not available.
7:48 AM 5:07 PM
Waxing Crescent, 8% visible
METAR EGPH 110050Z AUTO 25006KT 9999 NCD 01/M01 Q1000

10-Day Weather Forecast

Almanac

Astronomy

Feb. 11, 2016 Rise Set
Actual Time
Civil Twilight
Nautical Twilight
Astronomical Twilight
Moon
Length of Visible Light
Length of Day
Tomorrow will be .
, % of the Moon is Illuminated

Today's Extremes

Country Highs Country Lows

Community

WunderPhotos

Upload Photos

1,891,948 photos uploaded!

WunderBlog® & News

Nearby

Air Quality

  Air Quality AQ Index Pollutant
Not available.

Snow Depth

Station Depth Elevation

Earthquake Activity

City Distance Mag. Time & Date
Minimum magnitude displayed is 2.5.

Coastal Water Temperatures

Place Temperature

Stations

Nearby Weather Stations

Station Location Temp. Windchill Dew Point Humidity Wind Precip. Elev Updated Type